sensor_id;sensor_type;location;lat;lon;timestamp;P1;durP1;ratioP1;P2;durP2;ratioP2
19396;SDS011;9834;48.076;11.878;2024-02-26T04:00:53;2.60;;;1.50;;
19396;SDS011;9834;48.076;11.878;2024-02-26T04:03:20;2.70;;;1.70;;
19396;SDS011;9834;48.076;11.878;2024-02-26T04:05:47;3.33;;;2.10;;
19396;SDS011;9834;48.076;11.878;2024-02-26T04:08:18;1.60;;;1.37;;
19396;SDS011;9834;48.076;11.878;2024-02-26T04:10:51;2.23;;;1.13;;
19396;SDS011;9834;48.076;11.878;2024-02-26T04:13:22;1.37;;;1.23;;
19396;SDS011;9834;48.076;11.878;2024-02-26T04:15:49;1.20;;;1.10;;
19396;SDS011;9834;48.076;11.878;2024-02-26T04:18:18;2.47;;;1.57;;
19396;SDS011;9834;48.076;11.878;2024-02-26T04:20:48;1.80;;;1.20;;
19396;SDS011;9834;48.076;11.878;2024-02-26T04:23:16;1.17;;;1.10;;
19396;SDS011;9834;48.076;11.878;2024-02-26T04:25:44;1.70;;;1.43;;
19396;SDS011;9834;48.076;11.878;2024-02-26T04:28:12;3.53;;;1.23;;
19396;SDS011;9834;48.076;11.878;2024-02-26T04:30:42;2.60;;;1.60;;
19396;SDS011;9834;48.076;11.878;2024-02-26T04:33:11;2.20;;;1.60;;
19396;SDS011;9834;48.076;11.878;2024-02-26T04:35:41;2.07;;;1.63;;
19396;SDS011;9834;48.076;11.878;2024-02-26T04:38:08;2.47;;;1.60;;
19396;SDS011;9834;48.076;11.878;2024-02-26T04:40:41;1.87;;;1.67;;
19396;SDS011;9834;48.076;11.878;2024-02-26T04:43:14;1.87;;;1.73;;
19396;SDS011;9834;48.076;11.878;2024-02-26T04:45:58;2.93;;;1.90;;
19396;SDS011;9834;48.076;11.878;2024-02-26T04:48:37;2.47;;;1.90;;
19396;SDS011;9834;48.076;11.878;2024-02-26T04:51:13;2.23;;;1.33;;
19396;SDS011;9834;48.076;11.878;2024-02-26T04:53:44;3.13;;;1.60;;
19396;SDS011;9834;48.076;11.878;2024-02-26T04:56:14;2.97;;;1.73;;
19396;SDS011;9834;48.076;11.878;2024-02-26T04:58:42;3.57;;;1.90;;
19396;SDS011;9834;48.076;11.878;2024-02-26T05:01:10;2.93;;;1.70;;
19396;SDS011;9834;48.076;11.878;2024-02-26T05:03:41;2.10;;;1.50;;
19396;SDS011;9834;48.076;11.878;2024-02-26T05:06:13;3.23;;;2.23;;
19396;SDS011;9834;48.076;11.878;2024-02-26T05:08:43;2.03;;;1.50;;
19396;SDS011;9834;48.076;11.878;2024-02-26T05:11:11;1.77;;;1.67;;
19396;SDS011;9834;48.076;11.878;2024-02-26T05:13:41;1.77;;;1.50;;
19396;SDS011;9834;48.076;11.878;2024-02-26T05:16:10;4.80;;;2.07;;
19396;SDS011;9834;48.076;11.878;2024-02-26T05:18:46;3.13;;;1.80;;
19396;SDS011;9834;48.076;11.878;2024-02-26T05:21:15;3.17;;;2.07;;
19396;SDS011;9834;48.076;11.878;2024-02-26T05:23:43;2.73;;;2.47;;
19396;SDS011;9834;48.076;11.878;2024-02-26T05:26:10;3.63;;;1.80;;
19396;SDS011;9834;48.076;11.878;2024-02-26T05:28:41;2.93;;;2.40;;
19396;SDS011;9834;48.076;11.878;2024-02-26T05:31:08;3.33;;;2.27;;
19396;SDS011;9834;48.076;11.878;2024-02-26T05:33:39;3.00;;;1.63;;
19396;SDS011;9834;48.076;11.878;2024-02-26T05:36:09;1.73;;;1.47;;
19396;SDS011;9834;48.076;11.878;2024-02-26T05:38:48;4.60;;;1.73;;
19396;SDS011;9834;48.076;11.878;2024-02-26T05:41:16;3.57;;;2.30;;
19396;SDS011;9834;48.076;11.878;2024-02-26T05:43:51;3.70;;;1.80;;
19396;SDS011;9834;48.076;11.878;2024-02-26T05:46:37;2.83;;;1.90;;
19396;SDS011;9834;48.076;11.878;2024-02-26T05:49:08;5.13;;;2.00;;
19396;SDS011;9834;48.076;11.878;2024-02-26T05:51:39;3.20;;;2.23;;
19396;SDS011;9834;48.076;11.878;2024-02-26T05:54:11;3.13;;;2.13;;
19396;SDS011;9834;48.076;11.878;2024-02-26T05:56:42;4.47;;;1.97;;
19396;SDS011;9834;48.076;11.878;2024-02-26T05:59:10;4.43;;;2.50;;
19396;SDS011;9834;48.076;11.878;2024-02-26T06:01:41;4.50;;;2.60;;
19396;SDS011;9834;48.076;11.878;2024-02-26T06:04:12;4.20;;;2.23;;
19396;SDS011;9834;48.076;11.878;2024-02-26T06:06:39;4.07;;;2.80;;
19396;SDS011;9834;48.076;11.878;2024-02-26T06:09:08;4.40;;;2.67;;
19396;SDS011;9834;48.076;11.878;2024-02-26T06:11:38;3.23;;;2.30;;
19396;SDS011;9834;48.076;11.878;2024-02-26T06:14:05;3.67;;;1.93;;
19396;SDS011;9834;48.076;11.878;2024-02-26T06:16:33;3.73;;;2.47;;
19396;SDS011;9834;48.076;11.878;2024-02-26T06:19:06;4.20;;;2.60;;
19396;SDS011;9834;48.076;11.878;2024-02-26T06:21:33;3.47;;;2.27;;
19396;SDS011;9834;48.076;11.878;2024-02-26T06:24:01;4.47;;;2.73;;
19396;SDS011;9834;48.076;11.878;2024-02-26T06:26:31;4.07;;;2.40;;
19396;SDS011;9834;48.076;11.878;2024-02-26T06:29:00;3.73;;;2.40;;
19396;SDS011;9834;48.076;11.878;2024-02-26T06:31:30;2.90;;;2.10;;
19396;SDS011;9834;48.076;11.878;2024-02-26T06:33:57;3.23;;;2.20;;
19396;SDS011;9834;48.076;11.878;2024-02-26T06:36:28;2.83;;;2.33;;
19396;SDS011;9834;48.076;11.878;2024-02-26T06:39:03;4.27;;;2.03;;
19396;SDS011;9834;48.076;11.878;2024-02-26T06:41:38;2.53;;;2.07;;
19396;SDS011;9834;48.076;11.878;2024-02-26T06:44:07;2.90;;;2.40;;
19396;SDS011;9834;48.076;11.878;2024-02-26T06:46:34;3.93;;;2.30;;
19396;SDS011;9834;48.076;11.878;2024-02-26T06:49:02;4.10;;;2.47;;
19396;SDS011;9834;48.076;11.878;2024-02-26T06:51:29;1.80;;;1.70;;
19396;SDS011;9834;48.076;11.878;2024-02-26T06:54:00;2.87;;;1.93;;
19396;SDS011;9834;48.076;11.878;2024-02-26T06:56:28;3.63;;;2.23;;
19396;SDS011;9834;48.076;11.878;2024-02-26T06:58:55;1.87;;;1.63;;
19396;SDS011;9834;48.076;11.878;2024-02-26T07:01:24;2.07;;;1.87;;
19396;SDS011;9834;48.076;11.878;2024-02-26T07:03:53;2.00;;;1.90;;
19396;SDS011;9834;48.076;11.878;2024-02-26T07:06:20;3.13;;;2.33;;
19396;SDS011;9834;48.076;11.878;2024-02-26T07:08:47;2.20;;;1.73;;
19396;SDS011;9834;48.076;11.878;2024-02-26T07:11:19;5.17;;;2.70;;
19396;SDS011;9834;48.076;11.878;2024-02-26T07:13:46;3.43;;;2.53;;
19396;SDS011;9834;48.076;11.878;2024-02-26T07:16:14;3.80;;;2.07;;
19396;SDS011;9834;48.076;11.878;2024-02-26T07:18:44;3.00;;;2.37;;
19396;SDS011;9834;48.076;11.878;2024-02-26T07:21:11;3.30;;;1.50;;
19396;SDS011;9834;48.076;11.878;2024-02-26T07:23:40;3.63;;;1.70;;
19396;SDS011;9834;48.076;11.878;2024-02-26T07:26:08;3.10;;;2.13;;
19396;SDS011;9834;48.076;11.878;2024-02-26T07:28:37;3.57;;;2.07;;
19396;SDS011;9834;48.076;11.878;2024-02-26T07:31:04;2.70;;;1.70;;
19396;SDS011;9834;48.076;11.878;2024-02-26T07:33:35;3.30;;;2.07;;
19396;SDS011;9834;48.076;11.878;2024-02-26T07:36:08;1.67;;;1.53;;
19396;SDS011;9834;48.076;11.878;2024-02-26T07:38:42;1.90;;;1.80;;
19396;SDS011;9834;48.076;11.878;2024-02-26T07:41:09;2.00;;;1.80;;
19396;SDS011;9834;48.076;11.878;2024-02-26T07:43:38;4.70;;;2.03;;
19396;SDS011;9834;48.076;11.878;2024-02-26T07:46:06;2.67;;;1.80;;
19396;SDS011;9834;48.076;11.878;2024-02-26T07:48:33;3.30;;;1.63;;
19396;SDS011;9834;48.076;11.878;2024-02-26T07:51:00;1.67;;;1.57;;
19396;SDS011;9834;48.076;11.878;2024-02-26T07:53:31;1.90;;;1.80;;
19396;SDS011;9834;48.076;11.878;2024-02-26T07:55:58;1.17;;;1.17;;
19396;SDS011;9834;48.076;11.878;2024-02-26T07:58:25;1.77;;;1.47;;
19396;SDS011;9834;48.076;11.878;2024-02-26T08:00:57;2.37;;;1.73;;
19396;SDS011;9834;48.076;11.878;2024-02-26T08:03:26;1.23;;;0.83;;
19396;SDS011;9834;48.076;11.878;2024-02-26T08:06:00;2.33;;;1.53;;
19396;SDS011;9834;48.076;11.878;2024-02-26T08:08:28;2.00;;;1.30;;
19396;SDS011;9834;48.076;11.878;2024-02-26T08:10:56;1.83;;;1.33;;
19396;SDS011;9834;48.076;11.878;2024-02-26T08:13:23;1.13;;;1.10;;
19396;SDS011;9834;48.076;11.878;2024-02-26T08:16:00;2.50;;;0.90;;
19396;SDS011;9834;48.076;11.878;2024-02-26T08:18:32;2.53;;;1.47;;
19396;SDS011;9834;48.076;11.878;2024-02-26T08:21:00;1.10;;;1.00;;
19396;SDS011;9834;48.076;11.878;2024-02-26T08:23:31;1.57;;;1.10;;
19396;SDS011;9834;48.076;11.878;2024-02-26T08:25:59;3.00;;;1.03;;
19396;SDS011;9834;48.076;11.878;2024-02-26T08:28:30;1.30;;;1.20;;
19396;SDS011;9834;48.076;11.878;2024-02-26T08:30:57;1.70;;;1.37;;
19396;SDS011;9834;48.076;11.878;2024-02-26T08:33:25;2.00;;;1.43;;
19396;SDS011;9834;48.076;11.878;2024-02-26T08:35:52;1.50;;;1.40;;
19396;SDS011;9834;48.076;11.878;2024-02-26T08:38:19;0.80;;;0.80;;
19396;SDS011;9834;48.076;11.878;2024-02-26T08:40:48;1.77;;;1.23;;
19396;SDS011;9834;48.076;11.878;2024-02-26T08:43:21;2.07;;;1.00;;
19396;SDS011;9834;48.076;11.878;2024-02-26T08:45:52;1.20;;;1.00;;
19396;SDS011;9834;48.076;11.878;2024-02-26T08:48:20;1.67;;;1.10;;
19396;SDS011;9834;48.076;11.878;2024-02-26T08:50:49;1.83;;;1.60;;
19396;SDS011;9834;48.076;11.878;2024-02-26T08:53:20;1.47;;;1.20;;
19396;SDS011;9834;48.076;11.878;2024-02-26T08:55:52;1.67;;;1.37;;
19396;SDS011;9834;48.076;11.878;2024-02-26T08:58:21;1.53;;;1.00;;
19396;SDS011;9834;48.076;11.878;2024-02-26T09:00:48;1.07;;;1.07;;
19396;SDS011;9834;48.076;11.878;2024-02-26T09:03:16;6.70;;;1.37;;
19396;SDS011;9834;48.076;11.878;2024-02-26T09:05:46;1.50;;;1.20;;
19396;SDS011;9834;48.076;11.878;2024-02-26T09:08:17;2.10;;;1.53;;
19396;SDS011;9834;48.076;11.878;2024-02-26T09:10:49;3.27;;;1.60;;
19396;SDS011;9834;48.076;11.878;2024-02-26T09:13:19;2.47;;;1.77;;
19396;SDS011;9834;48.076;11.878;2024-02-26T09:15:48;2.97;;;1.63;;
19396;SDS011;9834;48.076;11.878;2024-02-26T09:18:15;2.43;;;1.07;;
19396;SDS011;9834;48.076;11.878;2024-02-26T09:20:43;1.50;;;1.40;;
19396;SDS011;9834;48.076;11.878;2024-02-26T09:23:10;4.57;;;1.10;;
19396;SDS011;9834;48.076;11.878;2024-02-26T09:25:37;0.83;;;0.83;;
19396;SDS011;9834;48.076;11.878;2024-02-26T09:28:05;0.93;;;0.93;;
19396;SDS011;9834;48.076;11.878;2024-02-26T09:30:37;3.20;;;1.13;;
19396;SDS011;9834;48.076;11.878;2024-02-26T09:33:05;1.23;;;0.80;;
19396;SDS011;9834;48.076;11.878;2024-02-26T09:35:33;1.07;;;0.80;;
19396;SDS011;9834;48.076;11.878;2024-02-26T09:38:00;0.90;;;0.90;;
19396;SDS011;9834;48.076;11.878;2024-02-26T09:40:28;1.30;;;1.00;;
19396;SDS011;9834;48.076;11.878;2024-02-26T09:42:59;1.33;;;1.17;;
19396;SDS011;9834;48.076;11.878;2024-02-26T09:45:27;1.33;;;1.23;;
19396;SDS011;9834;48.076;11.878;2024-02-26T09:47:59;1.03;;;0.93;;
19396;SDS011;9834;48.076;11.878;2024-02-26T09:50:31;1.20;;;1.10;;
19396;SDS011;9834;48.076;11.878;2024-02-26T09:52:58;0.87;;;0.87;;
19396;SDS011;9834;48.076;11.878;2024-02-26T09:55:28;1.27;;;1.07;;
19396;SDS011;9834;48.076;11.878;2024-02-26T09:57:58;1.30;;;0.83;;
19396;SDS011;9834;48.076;11.878;2024-02-26T10:00:29;1.80;;;1.00;;
19396;SDS011;9834;48.076;11.878;2024-02-26T10:03:09;1.43;;;1.10;;
19396;SDS011;9834;48.076;11.878;2024-02-26T10:05:41;1.13;;;1.03;;
19396;SDS011;9834;48.076;11.878;2024-02-26T10:08:09;1.67;;;0.80;;
19396;SDS011;9834;48.076;11.878;2024-02-26T10:10:38;1.20;;;0.90;;
19396;SDS011;9834;48.076;11.878;2024-02-26T10:13:06;1.57;;;1.20;;
19396;SDS011;9834;48.076;11.878;2024-02-26T10:15:39;0.83;;;0.80;;
19396;SDS011;9834;48.076;11.878;2024-02-26T10:18:08;2.60;;;0.80;;
19396;SDS011;9834;48.076;11.878;2024-02-26T10:20:40;1.27;;;1.17;;
19396;SDS011;9834;48.076;11.878;2024-02-26T10:23:10;1.43;;;1.03;;
19396;SDS011;9834;48.076;11.878;2024-02-26T10:25:45;1.40;;;1.20;;
19396;SDS011;9834;48.076;11.878;2024-02-26T10:28:20;1.53;;;1.03;;
19396;SDS011;9834;48.076;11.878;2024-02-26T10:30:51;1.10;;;1.00;;
19396;SDS011;9834;48.076;11.878;2024-02-26T10:33:22;1.37;;;1.10;;
19396;SDS011;9834;48.076;11.878;2024-02-26T10:35:49;3.70;;;1.00;;
19396;SDS011;9834;48.076;11.878;2024-02-26T10:38:20;1.20;;;1.10;;
19396;SDS011;9834;48.076;11.878;2024-02-26T10:40:48;1.27;;;1.17;;
19396;SDS011;9834;48.076;11.878;2024-02-26T10:43:16;1.20;;;1.00;;
19396;SDS011;9834;48.076;11.878;2024-02-26T10:45:44;1.97;;;1.27;;
19396;SDS011;9834;48.076;11.878;2024-02-26T10:48:15;2.03;;;1.30;;
19396;SDS011;9834;48.076;11.878;2024-02-26T10:50:48;1.40;;;1.20;;
19396;SDS011;9834;48.076;11.878;2024-02-26T10:53:20;1.67;;;1.07;;
19396;SDS011;9834;48.076;11.878;2024-02-26T10:55:48;2.27;;;1.10;;
19396;SDS011;9834;48.076;11.878;2024-02-26T10:58:31;2.23;;;1.30;;
19396;SDS011;9834;48.076;11.878;2024-02-26T11:01:06;2.73;;;1.57;;
19396;SDS011;9834;48.076;11.878;2024-02-26T11:03:35;1.60;;;1.23;;
19396;SDS011;9834;48.076;11.878;2024-02-26T11:06:06;2.63;;;1.33;;
19396;SDS011;9834;48.076;11.878;2024-02-26T11:08:38;1.40;;;1.00;;
19396;SDS011;9834;48.076;11.878;2024-02-26T11:11:09;1.33;;;1.23;;
19396;SDS011;9834;48.076;11.878;2024-02-26T11:13:40;0.73;;;0.73;;
19396;SDS011;9834;48.076;11.878;2024-02-26T11:16:13;1.30;;;1.20;;
19396;SDS011;9834;48.076;11.878;2024-02-26T11:18:49;1.70;;;1.50;;
19396;SDS011;9834;48.076;11.878;2024-02-26T11:21:21;0.93;;;0.93;;
19396;SDS011;9834;48.076;11.878;2024-02-26T11:23:55;0.93;;;0.93;;
19396;SDS011;9834;48.076;11.878;2024-02-26T11:26:23;1.07;;;0.97;;
19396;SDS011;9834;48.076;11.878;2024-02-26T11:28:53;0.60;;;0.60;;
19396;SDS011;9834;48.076;11.878;2024-02-26T11:31:24;0.70;;;0.70;;
19396;SDS011;9834;48.076;11.878;2024-02-26T11:33:52;0.73;;;0.70;;
19396;SDS011;9834;48.076;11.878;2024-02-26T11:36:29;1.23;;;0.70;;
19396;SDS011;9834;48.076;11.878;2024-02-26T11:38:59;0.40;;;0.40;;
19396;SDS011;9834;48.076;11.878;2024-02-26T11:41:29;0.40;;;0.40;;
19396;SDS011;9834;48.076;11.878;2024-02-26T11:43:57;0.80;;;0.57;;
19396;SDS011;9834;48.076;11.878;2024-02-26T11:46:27;0.40;;;0.40;;
19396;SDS011;9834;48.076;11.878;2024-02-26T11:48:58;1.23;;;0.43;;
19396;SDS011;9834;48.076;11.878;2024-02-26T11:51:28;0.43;;;0.43;;
19396;SDS011;9834;48.076;11.878;2024-02-26T11:54:02;0.53;;;0.53;;
19396;SDS011;9834;48.076;11.878;2024-02-26T11:56:30;0.60;;;0.60;;
19396;SDS011;9834;48.076;11.878;2024-02-26T11:59:04;0.70;;;0.70;;
19396;SDS011;9834;48.076;11.878;2024-02-26T12:01:39;0.83;;;0.60;;
19396;SDS011;9834;48.076;11.878;2024-02-26T12:04:14;0.90;;;0.90;;
19396;SDS011;9834;48.076;11.878;2024-02-26T12:06:47;1.03;;;0.70;;
19396;SDS011;9834;48.076;11.878;2024-02-26T12:09:31;0.80;;;0.63;;
19396;SDS011;9834;48.076;11.878;2024-02-26T12:12:03;1.67;;;0.50;;
19396;SDS011;9834;48.076;11.878;2024-02-26T12:14:39;0.60;;;0.60;;
19396;SDS011;9834;48.076;11.878;2024-02-26T12:17:07;0.60;;;0.60;;
19396;SDS011;9834;48.076;11.878;2024-02-26T12:19:44;0.60;;;0.47;;
19396;SDS011;9834;48.076;11.878;2024-02-26T12:22:15;0.85;;;0.60;;
19396;SDS011;9834;48.076;11.878;2024-02-26T12:24:43;0.93;;;0.80;;
19396;SDS011;9834;48.076;11.878;2024-02-26T12:27:15;3.50;;;0.60;;
19396;SDS011;9834;48.076;11.878;2024-02-26T12:29:42;0.40;;;0.40;;
19396;SDS011;9834;48.076;11.878;2024-02-26T12:32:22;0.80;;;0.57;;
19396;SDS011;9834;48.076;11.878;2024-02-26T12:34:50;0.38;;;0.38;;
19396;SDS011;9834;48.076;11.878;2024-02-26T12:37:19;0.88;;;0.52;;
19396;SDS011;9834;48.076;11.878;2024-02-26T12:39:47;0.80;;;0.80;;
19396;SDS011;9834;48.076;11.878;2024-02-26T12:42:17;0.82;;;0.45;;
19396;SDS011;9834;48.076;11.878;2024-02-26T12:44:45;1.00;;;0.68;;
19396;SDS011;9834;48.076;11.878;2024-02-26T12:47:22;0.30;;;0.30;;
19396;SDS011;9834;48.076;11.878;2024-02-26T12:49:52;0.63;;;0.50;;
19396;SDS011;9834;48.076;11.878;2024-02-26T12:52:21;0.30;;;0.30;;
19396;SDS011;9834;48.076;11.878;2024-02-26T12:54:52;0.30;;;0.30;;
19396;SDS011;9834;48.076;11.878;2024-02-26T12:57:21;0.45;;;0.40;;
19396;SDS011;9834;48.076;11.878;2024-02-26T12:59:49;0.47;;;0.40;;
19396;SDS011;9834;48.076;11.878;2024-02-26T13:02:21;0.30;;;0.30;;
19396;SDS011;9834;48.076;11.878;2024-02-26T13:04:52;1.00;;;0.50;;
19396;SDS011;9834;48.076;11.878;2024-02-26T13:07:23;0.65;;;0.60;;
19396;SDS011;9834;48.076;11.878;2024-02-26T13:09:51;0.60;;;0.60;;
19396;SDS011;9834;48.076;11.878;2024-02-26T13:12:21;0.82;;;0.57;;
19396;SDS011;9834;48.076;11.878;2024-02-26T13:14:59;0.40;;;0.40;;
19396;SDS011;9834;48.076;11.878;2024-02-26T13:17:33;0.88;;;0.60;;
19396;SDS011;9834;48.076;11.878;2024-02-26T13:20:01;0.50;;;0.50;;
19396;SDS011;9834;48.076;11.878;2024-02-26T13:22:38;0.30;;;0.30;;
19396;SDS011;9834;48.076;11.878;2024-02-26T13:25:06;0.65;;;0.52;;
19396;SDS011;9834;48.076;11.878;2024-02-26T13:27:34;0.88;;;0.50;;
19396;SDS011;9834;48.076;11.878;2024-02-26T13:30:03;0.30;;;0.30;;
19396;SDS011;9834;48.076;11.878;2024-02-26T13:32:35;0.35;;;0.35;;
19396;SDS011;9834;48.076;11.878;2024-02-26T13:35:05;0.30;;;0.30;;
19396;SDS011;9834;48.076;11.878;2024-02-26T13:37:40;0.30;;;0.30;;
19396;SDS011;9834;48.076;11.878;2024-02-26T13:40:08;0.20;;;0.20;;
19396;SDS011;9834;48.076;11.878;2024-02-26T13:42:39;1.02;;;0.35;;
19396;SDS011;9834;48.076;11.878;2024-02-26T13:45:10;1.45;;;0.60;;
19396;SDS011;9834;48.076;11.878;2024-02-26T13:47:40;0.30;;;0.30;;
19396;SDS011;9834;48.076;11.878;2024-02-26T13:50:10;1.17;;;0.98;;
19396;SDS011;9834;48.076;11.878;2024-02-26T13:52:50;1.42;;;0.63;;
19396;SDS011;9834;48.076;11.878;2024-02-26T13:55:19;1.20;;;0.70;;
19396;SDS011;9834;48.076;11.878;2024-02-26T13:57:48;1.20;;;1.10;;
19396;SDS011;9834;48.076;11.878;2024-02-26T14:00:17;0.70;;;0.70;;
19396;SDS011;9834;48.076;11.878;2024-02-26T14:02:45;0.75;;;0.75;;
19396;SDS011;9834;48.076;11.878;2024-02-26T14:05:12;0.82;;;0.40;;
19396;SDS011;9834;48.076;11.878;2024-02-26T14:07:40;0.60;;;0.60;;
19396;SDS011;9834;48.076;11.878;2024-02-26T14:10:15;0.60;;;0.60;;
19396;SDS011;9834;48.076;11.878;2024-02-26T14:12:48;0.50;;;0.47;;
19396;SDS011;9834;48.076;11.878;2024-02-26T14:15:15;0.50;;;0.50;;
19396;SDS011;9834;48.076;11.878;2024-02-26T14:17:43;0.60;;;0.60;;
19396;SDS011;9834;48.076;11.878;2024-02-26T14:20:19;4.70;;;0.50;;
19396;SDS011;9834;48.076;11.878;2024-02-26T14:22:47;1.13;;;0.35;;
19396;SDS011;9834;48.076;11.878;2024-02-26T14:25:19;0.52;;;0.40;;
19396;SDS011;9834;48.076;11.878;2024-02-26T14:27:50;0.22;;;0.22;;
19396;SDS011;9834;48.076;11.878;2024-02-26T14:30:21;0.50;;;0.50;;
19396;SDS011;9834;48.076;11.878;2024-02-26T14:32:51;0.88;;;0.60;;
19396;SDS011;9834;48.076;11.878;2024-02-26T14:35:19;0.63;;;0.60;;
19396;SDS011;9834;48.076;11.878;2024-02-26T14:37:51;0.98;;;0.80;;
19396;SDS011;9834;48.076;11.878;2024-02-26T14:40:27;0.80;;;0.80;;
19396;SDS011;9834;48.076;11.878;2024-02-26T14:42:57;1.58;;;0.68;;
19396;SDS011;9834;48.076;11.878;2024-02-26T14:45:25;2.20;;;1.20;;
19396;SDS011;9834;48.076;11.878;2024-02-26T14:47:55;0.63;;;0.63;;
19396;SDS011;9834;48.076;11.878;2024-02-26T14:50:23;2.03;;;1.00;;
19396;SDS011;9834;48.076;11.878;2024-02-26T14:52:58;1.00;;;1.00;;
19396;SDS011;9834;48.076;11.878;2024-02-26T14:55:36;0.73;;;0.73;;
19396;SDS011;9834;48.076;11.878;2024-02-26T14:58:03;1.37;;;1.10;;
19396;SDS011;9834;48.076;11.878;2024-02-26T15:00:36;1.20;;;1.10;;
19396;SDS011;9834;48.076;11.878;2024-02-26T15:03:04;0.93;;;0.73;;
19396;SDS011;9834;48.076;11.878;2024-02-26T15:05:33;1.33;;;0.90;;
19396;SDS011;9834;48.076;11.878;2024-02-26T15:08:00;1.50;;;1.20;;
19396;SDS011;9834;48.076;11.878;2024-02-26T15:10:41;1.50;;;1.40;;
19396;SDS011;9834;48.076;11.878;2024-02-26T15:13:14;1.80;;;1.27;;
19396;SDS011;9834;48.076;11.878;2024-02-26T15:15:49;1.10;;;1.07;;
19396;SDS011;9834;48.076;11.878;2024-02-26T15:18:22;1.43;;;1.20;;
19396;SDS011;9834;48.076;11.878;2024-02-26T15:20:50;1.73;;;1.10;;
19396;SDS011;9834;48.076;11.878;2024-02-26T15:23:24;1.93;;;1.03;;
19396;SDS011;9834;48.076;11.878;2024-02-26T15:25:54;1.30;;;1.20;;
19396;SDS011;9834;48.076;11.878;2024-02-26T15:28:22;2.40;;;1.30;;
19396;SDS011;9834;48.076;11.878;2024-02-26T15:30:55;1.87;;;1.27;;
19396;SDS011;9834;48.076;11.878;2024-02-26T15:33:23;1.00;;;0.90;;
19396;SDS011;9834;48.076;11.878;2024-02-26T15:35:53;1.20;;;1.10;;
19396;SDS011;9834;48.076;11.878;2024-02-26T15:38:24;1.03;;;0.93;;
19396;SDS011;9834;48.076;11.878;2024-02-26T15:40:59;2.50;;;0.93;;
19396;SDS011;9834;48.076;11.878;2024-02-26T15:43:27;0.73;;;0.73;;
19396;SDS011;9834;48.076;11.878;2024-02-26T15:45:54;0.80;;;0.63;;
19396;SDS011;9834;48.076;11.878;2024-02-26T15:48:25;0.63;;;0.63;;
19396;SDS011;9834;48.076;11.878;2024-02-26T15:50:54;0.70;;;0.63;;
19396;SDS011;9834;48.076;11.878;2024-02-26T15:53:30;1.30;;;0.90;;
19396;SDS011;9834;48.076;11.878;2024-02-26T15:56:04;1.23;;;0.73;;
19396;SDS011;9834;48.076;11.878;2024-02-26T15:58:32;1.57;;;0.70;;
19396;SDS011;9834;48.076;11.878;2024-02-26T16:01:03;1.20;;;0.90;;
19396;SDS011;9834;48.076;11.878;2024-02-26T16:03:38;0.90;;;0.80;;
19396;SDS011;9834;48.076;11.878;2024-02-26T16:06:19;1.17;;;1.00;;
19396;SDS011;9834;48.076;11.878;2024-02-26T16:08:57;0.97;;;0.93;;
19396;SDS011;9834;48.076;11.878;2024-02-26T16:11:34;2.90;;;1.40;;
19396;SDS011;9834;48.076;11.878;2024-02-26T16:14:16;4.13;;;1.97;;
19396;SDS011;9834;48.076;11.878;2024-02-26T16:17:00;2.30;;;1.47;;
19396;SDS011;9834;48.076;11.878;2024-02-26T16:19:35;1.73;;;1.63;;
19396;SDS011;9834;48.076;11.878;2024-02-26T16:22:09;2.87;;;2.00;;
19396;SDS011;9834;48.076;11.878;2024-02-26T16:24:39;3.80;;;2.27;;
19396;SDS011;9834;48.076;11.878;2024-02-26T16:27:16;2.63;;;2.00;;
19396;SDS011;9834;48.076;11.878;2024-02-26T16:29:44;4.20;;;2.10;;
19396;SDS011;9834;48.076;11.878;2024-02-26T16:32:25;4.43;;;2.20;;
19396;SDS011;9834;48.076;11.878;2024-02-26T16:34:52;2.33;;;1.67;;
19396;SDS011;9834;48.076;11.878;2024-02-26T16:37:19;3.53;;;1.40;;
19396;SDS011;9834;48.076;11.878;2024-02-26T16:39:49;1.90;;;1.40;;
19396;SDS011;9834;48.076;11.878;2024-02-26T16:42:21;1.20;;;1.13;;
19396;SDS011;9834;48.076;11.878;2024-02-26T16:44:51;1.37;;;1.17;;
19396;SDS011;9834;48.076;11.878;2024-02-26T16:47:20;1.63;;;1.27;;
19396;SDS011;9834;48.076;11.878;2024-02-26T16:49:51;1.30;;;1.07;;
19396;SDS011;9834;48.076;11.878;2024-02-26T16:52:18;1.50;;;1.00;;
19396;SDS011;9834;48.076;11.878;2024-02-26T16:54:51;1.13;;;0.83;;
19396;SDS011;9834;48.076;11.878;2024-02-26T16:57:22;1.97;;;1.30;;
19396;SDS011;9834;48.076;11.878;2024-02-26T16:59:53;1.47;;;1.37;;
19396;SDS011;9834;48.076;11.878;2024-02-26T17:02:29;1.23;;;1.13;;
19396;SDS011;9834;48.076;11.878;2024-02-26T17:05:00;1.27;;;1.17;;
19396;SDS011;9834;48.076;11.878;2024-02-26T17:07:28;1.47;;;0.97;;
19396;SDS011;9834;48.076;11.878;2024-02-26T17:10:07;2.97;;;2.50;;
19396;SDS011;9834;48.076;11.878;2024-02-26T17:12:41;4.30;;;2.50;;
19396;SDS011;9834;48.076;11.878;2024-02-26T17:15:13;1.90;;;1.40;;
19396;SDS011;9834;48.076;11.878;2024-02-26T17:17:40;1.70;;;1.43;;
19396;SDS011;9834;48.076;11.878;2024-02-26T17:23:27;8.33;;;2.57;;
19396;SDS011;9834;48.076;11.878;2024-02-26T17:26:01;3.57;;;2.17;;
19396;SDS011;9834;48.076;11.878;2024-02-26T17:28:30;5.37;;;2.47;;
19396;SDS011;9834;48.076;11.878;2024-02-26T17:31:01;4.33;;;2.47;;
19396;SDS011;9834;48.076;11.878;2024-02-26T17:33:31;4.23;;;2.30;;
19396;SDS011;9834;48.076;11.878;2024-02-26T17:36:03;3.73;;;1.80;;
19396;SDS011;9834;48.076;11.878;2024-02-26T17:38:33;6.63;;;2.43;;
19396;SDS011;9834;48.076;11.878;2024-02-26T17:41:07;4.00;;;2.37;;
19396;SDS011;9834;48.076;11.878;2024-02-26T17:43:39;4.77;;;2.27;;
19396;SDS011;9834;48.076;11.878;2024-02-26T17:46:07;4.43;;;1.90;;
19396;SDS011;9834;48.076;11.878;2024-02-26T17:48:34;9.63;;;3.13;;
19396;SDS011;9834;48.076;11.878;2024-02-26T17:51:02;5.90;;;2.73;;
19396;SDS011;9834;48.076;11.878;2024-02-26T17:53:32;3.60;;;2.37;;
19396;SDS011;9834;48.076;11.878;2024-02-26T17:55:59;3.77;;;2.20;;
19396;SDS011;9834;48.076;11.878;2024-02-26T17:58:34;2.63;;;2.00;;
19396;SDS011;9834;48.076;11.878;2024-02-26T18:01:07;2.00;;;1.73;;
19396;SDS011;9834;48.076;11.878;2024-02-26T18:03:34;2.40;;;1.90;;
19396;SDS011;9834;48.076;11.878;2024-02-26T18:06:02;2.67;;;2.27;;
19396;SDS011;9834;48.076;11.878;2024-02-26T18:08:31;2.10;;;1.90;;
19396;SDS011;9834;48.076;11.878;2024-02-26T18:11:01;2.70;;;1.80;;
19396;SDS011;9834;48.076;11.878;2024-02-26T18:13:35;1.60;;;1.50;;
19396;SDS011;9834;48.076;11.878;2024-02-26T18:16:11;1.93;;;1.40;;
19396;SDS011;9834;48.076;11.878;2024-02-26T18:18:41;2.97;;;2.07;;
19396;SDS011;9834;48.076;11.878;2024-02-26T18:21:22;3.93;;;2.20;;
19396;SDS011;9834;48.076;11.878;2024-02-26T18:23:56;4.17;;;2.00;;
19396;SDS011;9834;48.076;11.878;2024-02-26T18:26:29;5.17;;;1.90;;
19396;SDS011;9834;48.076;11.878;2024-02-26T18:28:57;2.50;;;2.03;;
19396;SDS011;9834;48.076;11.878;2024-02-26T18:31:33;2.33;;;1.80;;
19396;SDS011;9834;48.076;11.878;2024-02-26T18:34:04;2.43;;;1.67;;
19396;SDS011;9834;48.076;11.878;2024-02-26T18:36:48;1.90;;;1.80;;
19396;SDS011;9834;48.076;11.878;2024-02-26T18:39:15;2.03;;;1.83;;
19396;SDS011;9834;48.076;11.878;2024-02-26T18:41:46;2.53;;;1.57;;
19396;SDS011;9834;48.076;11.878;2024-02-26T18:44:13;2.03;;;1.83;;
19396;SDS011;9834;48.076;11.878;2024-02-26T18:46:44;3.67;;;2.10;;
19396;SDS011;9834;48.076;11.878;2024-02-26T18:49:13;2.17;;;1.80;;
19396;SDS011;9834;48.076;11.878;2024-02-26T18:51:42;3.67;;;1.77;;
19396;SDS011;9834;48.076;11.878;2024-02-26T18:54:17;2.13;;;1.70;;
19396;SDS011;9834;48.076;11.878;2024-02-26T18:56:53;1.80;;;1.67;;
19396;SDS011;9834;48.076;11.878;2024-02-26T18:59:25;4.10;;;1.70;;
19396;SDS011;9834;48.076;11.878;2024-02-26T19:01:57;3.67;;;2.13;;
19396;SDS011;9834;48.076;11.878;2024-02-26T19:04:25;3.20;;;1.90;;
19396;SDS011;9834;48.076;11.878;2024-02-26T19:06:57;1.97;;;1.87;;
19396;SDS011;9834;48.076;11.878;2024-02-26T19:09:30;5.40;;;2.27;;
19396;SDS011;9834;48.076;11.878;2024-02-26T19:11:58;2.40;;;2.20;;